Melbourne International Airport
YMML : now visible

Airfield :











YOU CAN JOIN US ON...

 
LOGIN :

Register | Disclaimer

   EN    FR    IT 

 









Legend :    VFR   Marginal VFR   IFR   Intensive IFR   Very Intensive IFR
Visi :
Ceiling :
>= 8 km
>= 3000ft
5 to 8 km
1000 to 3000 ft
1500m to 5 km
500 to 1000 ft
800 to 1500m
200 to 500 ft
< 800m
< 200 ft
Symbols :   Thunderstorms  Fog  Heavy snow  Heavy precipitations  Wind > 20 kt







- Airport Elevation : 434 ft
- IATA code : MEL


YMML - Melbourne International

CURRENT METAR :
  • 201330Z 23008KT 9999 FEW022 SCT041 15/11 Q1018 NOSIG

EXPIRED METARs :
  • 201300Z 22009KT 9999 FEW022 BKN037 15/11 Q1017
  • 201230Z 22011KT 9999 FEW022 15/10 Q1017 NOSIG
  • 201200Z 22009KT 9999 FEW022 16/09 Q1017
  • 201130Z 20005KT 9999 FEW020 15/12 Q1017 NOSIG
  • 201100Z 18006KT 9999 FEW022 BKN049 16/12 Q1017
  • 201030Z 18006KT 9999 FEW024 16/12 Q1016 NOSIG

TAF TAF YMML
Valid from the 20 at 12:00 until the 21 at 18:00 UTC


201116Z 2012/2118 17012KT 9999 -SHRA SCT018 BKN035
FM201300 23010KT 9999 -SHRA SCT018 SCT030
FM202100 21010KT 9999 BKN035
FM210200 17015KT 9999 FEW035
BECMG 2111/2113 16006KT 9999 FEW018 SCT025
YMMM FIR / Oceania



MET'MAP, your aeronautical weather chart ! - Copyright ORBIFLY December 2007 - Disclaimer

ORBIFLY MET'MAP TEAM :

Programming & Development : Alexandra Zaïnal
Concept & Development : Baudouin d'Aumeries
Co-Development & Prog : Marc-Olivier Méhu
Technical & hardware support : Manuel Goepfert

Contact : metmap@orbifly.com




SOURCES & CREDITS :

   NOAA       Earth
Advisory